sensor_id;sensor_type;location;lat;lon;timestamp;P1;durP1;ratioP1;P2;durP2;ratioP2
14088;SDS011;7120;52.890;6.040;2023-05-10T00:00:51;1999.90;;;999.90;;
14088;SDS011;7120;52.890;6.040;2023-05-10T00:03:16;1999.90;;;999.90;;
14088;SDS011;7120;52.890;6.040;2023-05-10T00:05:41;1999.90;;;999.90;;
14088;SDS011;7120;52.890;6.040;2023-05-10T00:08:07;1999.90;;;999.90;;
14088;SDS011;7120;52.890;6.040;2023-05-10T00:10:32;1999.90;;;999.90;;
14088;SDS011;7120;52.890;6.040;2023-05-10T00:12:58;1999.90;;;999.90;;
14088;SDS011;7120;52.890;6.040;2023-05-10T00:15:23;1999.90;;;999.90;;
14088;SDS011;7120;52.890;6.040;2023-05-10T00:17:48;1999.90;;;999.90;;
14088;SDS011;7120;52.890;6.040;2023-05-10T00:20:14;1999.90;;;999.90;;
14088;SDS011;7120;52.890;6.040;2023-05-10T00:22:39;1999.90;;;999.90;;
14088;SDS011;7120;52.890;6.040;2023-05-10T00:25:05;1999.90;;;999.90;;
14088;SDS011;7120;52.890;6.040;2023-05-10T00:27:31;1999.90;;;999.90;;
14088;SDS011;7120;52.890;6.040;2023-05-10T00:29:56;1999.90;;;999.90;;
14088;SDS011;7120;52.890;6.040;2023-05-10T00:32:22;1999.90;;;999.90;;
14088;SDS011;7120;52.890;6.040;2023-05-10T00:34:47;1999.90;;;999.90;;
14088;SDS011;7120;52.890;6.040;2023-05-10T00:37:13;1999.90;;;999.90;;
14088;SDS011;7120;52.890;6.040;2023-05-10T00:39:38;1999.90;;;999.90;;
14088;SDS011;7120;52.890;6.040;2023-05-10T00:42:03;1999.90;;;999.90;;
14088;SDS011;7120;52.890;6.040;2023-05-10T00:44:29;1999.90;;;999.90;;
14088;SDS011;7120;52.890;6.040;2023-05-10T00:46:55;1999.90;;;999.90;;
14088;SDS011;7120;52.890;6.040;2023-05-10T00:49:22;1999.90;;;999.90;;
14088;SDS011;7120;52.890;6.040;2023-05-10T00:51:47;1999.90;;;999.90;;
14088;SDS011;7120;52.890;6.040;2023-05-10T00:54:14;1999.90;;;999.90;;
14088;SDS011;7120;52.890;6.040;2023-05-10T00:56:40;1999.90;;;999.90;;
14088;SDS011;7120;52.890;6.040;2023-05-10T00:59:06;1999.90;;;999.90;;
14088;SDS011;7120;52.890;6.040;2023-05-10T01:01:35;1999.90;;;999.90;;
14088;SDS011;7120;52.890;6.040;2023-05-10T01:04:01;1999.90;;;999.90;;
14088;SDS011;7120;52.890;6.040;2023-05-10T01:06:26;1999.90;;;999.90;;
14088;SDS011;7120;52.890;6.040;2023-05-10T01:08:52;1999.90;;;999.90;;
14088;SDS011;7120;52.890;6.040;2023-05-10T01:11:18;1999.90;;;999.90;;
14088;SDS011;7120;52.890;6.040;2023-05-10T01:13:43;1999.90;;;999.90;;
14088;SDS011;7120;52.890;6.040;2023-05-10T01:16:17;1999.90;;;999.90;;
14088;SDS011;7120;52.890;6.040;2023-05-10T01:18:42;1999.90;;;999.90;;
14088;SDS011;7120;52.890;6.040;2023-05-10T01:21:23;1999.90;;;999.90;;
14088;SDS011;7120;52.890;6.040;2023-05-10T01:32:45;1999.90;;;999.90;;
14088;SDS011;7120;52.890;6.040;2023-05-10T01:40:35;1999.90;;;999.90;;
14088;SDS011;7120;52.890;6.040;2023-05-10T01:43:08;1999.90;;;999.90;;
14088;SDS011;7120;52.890;6.040;2023-05-10T01:45:47;1999.90;;;999.90;;
14088;SDS011;7120;52.890;6.040;2023-05-10T01:48:21;1999.90;;;999.90;;
14088;SDS011;7120;52.890;6.040;2023-05-10T01:50:49;1999.90;;;999.90;;
14088;SDS011;7120;52.890;6.040;2023-05-10T01:53:17;1999.90;;;999.90;;
14088;SDS011;7120;52.890;6.040;2023-05-10T01:55:48;1999.90;;;999.90;;
14088;SDS011;7120;52.890;6.040;2023-05-10T01:58:20;1999.90;;;999.90;;
14088;SDS011;7120;52.890;6.040;2023-05-10T02:00:52;1999.90;;;999.90;;
14088;SDS011;7120;52.890;6.040;2023-05-10T02:03:23;1999.90;;;999.90;;
14088;SDS011;7120;52.890;6.040;2023-05-10T02:05:51;1999.90;;;999.90;;
14088;SDS011;7120;52.890;6.040;2023-05-10T02:08:18;1999.90;;;999.90;;
14088;SDS011;7120;52.890;6.040;2023-05-10T02:10:45;1999.90;;;999.90;;
14088;SDS011;7120;52.890;6.040;2023-05-10T02:13:14;1999.90;;;999.90;;
14088;SDS011;7120;52.890;6.040;2023-05-10T02:15:42;1999.90;;;999.90;;
14088;SDS011;7120;52.890;6.040;2023-05-10T02:18:09;1999.90;;;999.90;;
14088;SDS011;7120;52.890;6.040;2023-05-10T02:20:36;1999.90;;;999.90;;
14088;SDS011;7120;52.890;6.040;2023-05-10T02:23:03;1999.90;;;999.90;;
14088;SDS011;7120;52.890;6.040;2023-05-10T02:25:29;1999.90;;;999.90;;
14088;SDS011;7120;52.890;6.040;2023-05-10T02:27:56;1999.90;;;999.90;;
14088;SDS011;7120;52.890;6.040;2023-05-10T02:30:25;1999.90;;;999.90;;
14088;SDS011;7120;52.890;6.040;2023-05-10T02:32:51;1999.90;;;999.90;;
14088;SDS011;7120;52.890;6.040;2023-05-10T02:35:17;1999.90;;;999.90;;
14088;SDS011;7120;52.890;6.040;2023-05-10T02:37:44;1999.90;;;999.90;;
14088;SDS011;7120;52.890;6.040;2023-05-10T02:40:11;1999.90;;;999.90;;
14088;SDS011;7120;52.890;6.040;2023-05-10T02:42:38;1999.90;;;999.90;;
14088;SDS011;7120;52.890;6.040;2023-05-10T02:45:08;1999.90;;;999.90;;
14088;SDS011;7120;52.890;6.040;2023-05-10T02:47:37;1999.90;;;999.90;;
14088;SDS011;7120;52.890;6.040;2023-05-10T02:50:03;1999.90;;;999.90;;
14088;SDS011;7120;52.890;6.040;2023-05-10T02:52:29;1999.90;;;999.90;;
14088;SDS011;7120;52.890;6.040;2023-05-10T02:55:02;1999.90;;;999.90;;
14088;SDS011;7120;52.890;6.040;2023-05-10T02:57:32;1999.90;;;999.90;;
14088;SDS011;7120;52.890;6.040;2023-05-10T02:59:59;1999.90;;;999.90;;
14088;SDS011;7120;52.890;6.040;2023-05-10T03:02:25;1999.90;;;999.90;;
14088;SDS011;7120;52.890;6.040;2023-05-10T03:04:51;1999.90;;;999.90;;
14088;SDS011;7120;52.890;6.040;2023-05-10T03:07:16;1999.90;;;999.90;;
14088;SDS011;7120;52.890;6.040;2023-05-10T03:09:44;1999.90;;;999.90;;
14088;SDS011;7120;52.890;6.040;2023-05-10T03:20:48;1999.90;;;999.90;;
14088;SDS011;7120;52.890;6.040;2023-05-10T03:25:59;1999.90;;;999.90;;
14088;SDS011;7120;52.890;6.040;2023-05-10T03:28:25;1999.90;;;999.90;;
14088;SDS011;7120;52.890;6.040;2023-05-10T03:30:54;1999.90;;;999.90;;
14088;SDS011;7120;52.890;6.040;2023-05-10T03:33:21;1999.90;;;999.90;;
14088;SDS011;7120;52.890;6.040;2023-05-10T03:35:47;1999.90;;;999.90;;
14088;SDS011;7120;52.890;6.040;2023-05-10T03:38:13;1999.90;;;999.90;;
14088;SDS011;7120;52.890;6.040;2023-05-10T03:40:38;1999.90;;;999.90;;
14088;SDS011;7120;52.890;6.040;2023-05-10T03:43:04;1999.90;;;999.90;;
14088;SDS011;7120;52.890;6.040;2023-05-10T03:45:29;1999.90;;;999.90;;
14088;SDS011;7120;52.890;6.040;2023-05-10T03:47:56;1999.90;;;999.90;;
14088;SDS011;7120;52.890;6.040;2023-05-10T03:50:22;1999.90;;;999.90;;
14088;SDS011;7120;52.890;6.040;2023-05-10T03:52:48;1999.90;;;999.90;;
14088;SDS011;7120;52.890;6.040;2023-05-10T03:55:13;1999.90;;;999.90;;
14088;SDS011;7120;52.890;6.040;2023-05-10T03:57:39;1999.90;;;999.90;;
14088;SDS011;7120;52.890;6.040;2023-05-10T04:00:04;1999.90;;;999.90;;
14088;SDS011;7120;52.890;6.040;2023-05-10T04:02:30;1999.90;;;999.90;;
14088;SDS011;7120;52.890;6.040;2023-05-10T04:04:56;1999.90;;;999.90;;
14088;SDS011;7120;52.890;6.040;2023-05-10T04:07:21;1999.90;;;999.90;;
14088;SDS011;7120;52.890;6.040;2023-05-10T04:09:46;1999.90;;;999.90;;
14088;SDS011;7120;52.890;6.040;2023-05-10T04:12:12;1999.90;;;999.90;;
14088;SDS011;7120;52.890;6.040;2023-05-10T04:14:37;1999.90;;;999.90;;
14088;SDS011;7120;52.890;6.040;2023-05-10T04:17:03;1999.90;;;999.90;;
14088;SDS011;7120;52.890;6.040;2023-05-10T04:19:28;1999.90;;;999.90;;
14088;SDS011;7120;52.890;6.040;2023-05-10T04:21:57;1999.90;;;999.90;;
14088;SDS011;7120;52.890;6.040;2023-05-10T04:24:23;1999.90;;;999.90;;
14088;SDS011;7120;52.890;6.040;2023-05-10T04:26:48;1999.90;;;999.90;;
14088;SDS011;7120;52.890;6.040;2023-05-10T04:29:13;1999.90;;;999.90;;
14088;SDS011;7120;52.890;6.040;2023-05-10T04:31:39;1999.90;;;999.90;;
14088;SDS011;7120;52.890;6.040;2023-05-10T04:34:04;1999.90;;;999.90;;
14088;SDS011;7120;52.890;6.040;2023-05-10T04:36:30;1999.90;;;999.90;;
14088;SDS011;7120;52.890;6.040;2023-05-10T04:38:55;1999.90;;;999.90;;
14088;SDS011;7120;52.890;6.040;2023-05-10T04:41:20;1999.90;;;999.90;;
14088;SDS011;7120;52.890;6.040;2023-05-10T04:43:46;1999.90;;;999.90;;
14088;SDS011;7120;52.890;6.040;2023-05-10T04:46:14;1999.90;;;999.90;;
14088;SDS011;7120;52.890;6.040;2023-05-10T04:48:39;1999.90;;;999.90;;
14088;SDS011;7120;52.890;6.040;2023-05-10T04:51:04;1999.90;;;999.90;;
14088;SDS011;7120;52.890;6.040;2023-05-10T04:53:31;1999.90;;;999.90;;
14088;SDS011;7120;52.890;6.040;2023-05-10T04:55:56;1999.90;;;999.90;;
14088;SDS011;7120;52.890;6.040;2023-05-10T04:58:22;1999.90;;;999.90;;
14088;SDS011;7120;52.890;6.040;2023-05-10T05:00:47;1999.90;;;999.90;;
14088;SDS011;7120;52.890;6.040;2023-05-10T05:03:12;1999.90;;;999.90;;
14088;SDS011;7120;52.890;6.040;2023-05-10T05:05:38;1999.90;;;999.90;;
14088;SDS011;7120;52.890;6.040;2023-05-10T05:08:03;1999.90;;;999.90;;
14088;SDS011;7120;52.890;6.040;2023-05-10T05:10:29;1999.90;;;999.90;;
14088;SDS011;7120;52.890;6.040;2023-05-10T05:12:54;1999.90;;;999.90;;
14088;SDS011;7120;52.890;6.040;2023-05-10T05:15:20;1999.90;;;999.90;;
14088;SDS011;7120;52.890;6.040;2023-05-10T05:17:45;1999.90;;;999.90;;
14088;SDS011;7120;52.890;6.040;2023-05-10T05:20:11;1999.90;;;999.90;;
14088;SDS011;7120;52.890;6.040;2023-05-10T05:22:37;1999.90;;;999.90;;
14088;SDS011;7120;52.890;6.040;2023-05-10T05:25:03;1999.90;;;999.90;;
14088;SDS011;7120;52.890;6.040;2023-05-10T05:27:29;1999.90;;;999.90;;
14088;SDS011;7120;52.890;6.040;2023-05-10T05:29:57;1999.90;;;999.90;;
14088;SDS011;7120;52.890;6.040;2023-05-10T05:32:24;1999.90;;;999.90;;
14088;SDS011;7120;52.890;6.040;2023-05-10T05:34:49;1999.90;;;999.90;;
14088;SDS011;7120;52.890;6.040;2023-05-10T05:37:16;1999.90;;;999.90;;
14088;SDS011;7120;52.890;6.040;2023-05-10T05:39:45;1999.90;;;999.90;;
14088;SDS011;7120;52.890;6.040;2023-05-10T05:42:11;1999.90;;;999.90;;
14088;SDS011;7120;52.890;6.040;2023-05-10T05:44:38;1999.90;;;999.90;;
14088;SDS011;7120;52.890;6.040;2023-05-10T05:47:04;1999.90;;;999.90;;
14088;SDS011;7120;52.890;6.040;2023-05-10T05:49:30;1999.90;;;999.90;;
14088;SDS011;7120;52.890;6.040;2023-05-10T05:51:59;1999.90;;;999.90;;
14088;SDS011;7120;52.890;6.040;2023-05-10T05:54:25;1999.90;;;999.90;;
14088;SDS011;7120;52.890;6.040;2023-05-10T05:56:53;1999.90;;;999.90;;
14088;SDS011;7120;52.890;6.040;2023-05-10T05:59:27;1999.90;;;999.90;;
14088;SDS011;7120;52.890;6.040;2023-05-10T06:01:53;1999.90;;;999.90;;
14088;SDS011;7120;52.890;6.040;2023-05-10T06:04:18;1999.90;;;999.90;;
14088;SDS011;7120;52.890;6.040;2023-05-10T06:06:44;1999.90;;;999.90;;
14088;SDS011;7120;52.890;6.040;2023-05-10T06:09:10;1999.90;;;814.13;;
14088;SDS011;7120;52.890;6.040;2023-05-10T06:11:36;1999.90;;;999.90;;
14088;SDS011;7120;52.890;6.040;2023-05-10T06:14:02;1999.90;;;999.90;;
14088;SDS011;7120;52.890;6.040;2023-05-10T06:16:32;1999.90;;;999.90;;
14088;SDS011;7120;52.890;6.040;2023-05-10T06:18:59;1999.90;;;999.90;;
14088;SDS011;7120;52.890;6.040;2023-05-10T06:21:24;1999.90;;;999.90;;
14088;SDS011;7120;52.890;6.040;2023-05-10T06:23:50;1999.90;;;999.90;;
14088;SDS011;7120;52.890;6.040;2023-05-10T06:26:16;1999.90;;;999.90;;
14088;SDS011;7120;52.890;6.040;2023-05-10T06:28:41;1999.90;;;999.90;;
14088;SDS011;7120;52.890;6.040;2023-05-10T06:31:07;1999.90;;;999.90;;
14088;SDS011;7120;52.890;6.040;2023-05-10T06:33:32;1999.90;;;999.90;;
14088;SDS011;7120;52.890;6.040;2023-05-10T06:35:58;1999.90;;;999.90;;
14088;SDS011;7120;52.890;6.040;2023-05-10T06:38:24;1999.90;;;999.90;;
14088;SDS011;7120;52.890;6.040;2023-05-10T06:40:49;1999.90;;;999.90;;
14088;SDS011;7120;52.890;6.040;2023-05-10T06:43:15;1999.90;;;999.90;;
14088;SDS011;7120;52.890;6.040;2023-05-10T06:45:41;1999.90;;;999.90;;
14088;SDS011;7120;52.890;6.040;2023-05-10T06:48:06;1999.90;;;999.90;;
14088;SDS011;7120;52.890;6.040;2023-05-10T06:50:32;1999.90;;;999.90;;
14088;SDS011;7120;52.890;6.040;2023-05-10T06:52:58;1999.90;;;999.90;;
14088;SDS011;7120;52.890;6.040;2023-05-10T06:55:24;1999.90;;;999.90;;
14088;SDS011;7120;52.890;6.040;2023-05-10T06:57:49;1999.90;;;999.90;;
14088;SDS011;7120;52.890;6.040;2023-05-10T07:00:15;1999.90;;;999.90;;
14088;SDS011;7120;52.890;6.040;2023-05-10T07:02:41;1999.90;;;999.90;;
14088;SDS011;7120;52.890;6.040;2023-05-10T07:05:06;1999.90;;;999.90;;
14088;SDS011;7120;52.890;6.040;2023-05-10T07:07:32;1999.90;;;999.90;;
14088;SDS011;7120;52.890;6.040;2023-05-10T07:09:57;1999.90;;;999.90;;
14088;SDS011;7120;52.890;6.040;2023-05-10T07:12:23;1999.90;;;999.90;;
14088;SDS011;7120;52.890;6.040;2023-05-10T07:14:49;1999.90;;;999.90;;
14088;SDS011;7120;52.890;6.040;2023-05-10T07:17:14;1999.90;;;999.90;;
14088;SDS011;7120;52.890;6.040;2023-05-10T07:19:40;1999.90;;;999.90;;
14088;SDS011;7120;52.890;6.040;2023-05-10T07:22:05;1999.90;;;999.90;;
14088;SDS011;7120;52.890;6.040;2023-05-10T07:24:31;1999.90;;;999.90;;
14088;SDS011;7120;52.890;6.040;2023-05-10T07:26:58;1999.90;;;995.10;;
14088;SDS011;7120;52.890;6.040;2023-05-10T07:29:23;1999.90;;;984.13;;
14088;SDS011;7120;52.890;6.040;2023-05-10T07:31:48;1999.90;;;975.30;;
14088;SDS011;7120;52.890;6.040;2023-05-10T07:34:14;1999.90;;;999.90;;
14088;SDS011;7120;52.890;6.040;2023-05-10T07:36:39;1999.90;;;995.40;;
14088;SDS011;7120;52.890;6.040;2023-05-10T07:39:04;1999.90;;;999.90;;
14088;SDS011;7120;52.890;6.040;2023-05-10T07:41:30;1999.90;;;999.90;;
14088;SDS011;7120;52.890;6.040;2023-05-10T07:43:55;1566.17;;;970.33;;
14088;SDS011;7120;52.890;6.040;2023-05-10T07:46:21;1731.73;;;838.37;;
14088;SDS011;7120;52.890;6.040;2023-05-10T07:48:46;1999.90;;;999.90;;
14088;SDS011;7120;52.890;6.040;2023-05-10T07:51:11;1999.90;;;999.90;;
14088;SDS011;7120;52.890;6.040;2023-05-10T07:53:37;1999.90;;;985.60;;
14088;SDS011;7120;52.890;6.040;2023-05-10T07:58:54;1999.90;;;999.90;;
14088;SDS011;7120;52.890;6.040;2023-05-10T08:01:21;1999.90;;;999.90;;
14088;SDS011;7120;52.890;6.040;2023-05-10T08:03:47;1999.90;;;999.90;;
14088;SDS011;7120;52.890;6.040;2023-05-10T08:06:12;1999.90;;;999.90;;
14088;SDS011;7120;52.890;6.040;2023-05-10T08:08:38;1999.90;;;999.90;;
14088;SDS011;7120;52.890;6.040;2023-05-10T08:11:03;1999.90;;;999.90;;
14088;SDS011;7120;52.890;6.040;2023-05-10T08:13:29;1999.90;;;999.90;;
14088;SDS011;7120;52.890;6.040;2023-05-10T08:15:54;1999.90;;;999.90;;
14088;SDS011;7120;52.890;6.040;2023-05-10T08:18:20;894.83;;;771.77;;
14088;SDS011;7120;52.890;6.040;2023-05-10T08:20:45;1434.87;;;827.27;;
14088;SDS011;7120;52.890;6.040;2023-05-10T08:23:14;1999.90;;;959.43;;
14088;SDS011;7120;52.890;6.040;2023-05-10T08:25:39;1410.10;;;889.30;;
14088;SDS011;7120;52.890;6.040;2023-05-10T08:28:05;1999.90;;;976.00;;
14088;SDS011;7120;52.890;6.040;2023-05-10T08:30:30;1999.90;;;964.67;;
14088;SDS011;7120;52.890;6.040;2023-05-10T08:32:56;1251.43;;;822.47;;
14088;SDS011;7120;52.890;6.040;2023-05-10T08:35:21;1999.90;;;991.80;;
14088;SDS011;7120;52.890;6.040;2023-05-10T08:37:46;1999.90;;;997.80;;
14088;SDS011;7120;52.890;6.040;2023-05-10T08:40:12;1522.80;;;775.50;;
14088;SDS011;7120;52.890;6.040;2023-05-10T08:42:39;358.83;;;330.80;;
14088;SDS011;7120;52.890;6.040;2023-05-10T08:45:08;781.50;;;670.50;;
14088;SDS011;7120;52.890;6.040;2023-05-10T08:47:36;537.03;;;487.83;;
14088;SDS011;7120;52.890;6.040;2023-05-10T08:50:03;415.73;;;386.70;;
14088;SDS011;7120;52.890;6.040;2023-05-10T08:52:29;453.30;;;413.30;;
14088;SDS011;7120;52.890;6.040;2023-05-10T08:54:56;171.20;;;162.23;;
14088;SDS011;7120;52.890;6.040;2023-05-10T08:57:22;174.33;;;164.13;;
14088;SDS011;7120;52.890;6.040;2023-05-10T08:59:47;274.73;;;254.93;;
14088;SDS011;7120;52.890;6.040;2023-05-10T09:02:13;390.97;;;355.50;;
14088;SDS011;7120;52.890;6.040;2023-05-10T09:04:38;804.67;;;447.70;;
14088;SDS011;7120;52.890;6.040;2023-05-10T09:07:04;80.73;;;77.23;;
14088;SDS011;7120;52.890;6.040;2023-05-10T09:09:30;41.30;;;39.47;;
14088;SDS011;7120;52.890;6.040;2023-05-10T09:11:56;37.70;;;36.00;;
14088;SDS011;7120;52.890;6.040;2023-05-10T09:14:22;5.93;;;5.53;;
14088;SDS011;7120;52.890;6.040;2023-05-10T09:16:49;5.27;;;4.87;;
14088;SDS011;7120;52.890;6.040;2023-05-10T09:19:14;6.43;;;6.03;;
14088;SDS011;7120;52.890;6.040;2023-05-10T09:21:40;7.63;;;6.97;;
14088;SDS011;7120;52.890;6.040;2023-05-10T09:24:06;13.30;;;12.30;;
14088;SDS011;7120;52.890;6.040;2023-05-10T09:26:32;13.17;;;12.33;;
14088;SDS011;7120;52.890;6.040;2023-05-10T09:28:58;113.93;;;107.67;;
14088;SDS011;7120;52.890;6.040;2023-05-10T09:31:28;32.67;;;30.77;;
14088;SDS011;7120;52.890;6.040;2023-05-10T09:34:08;163.97;;;153.13;;
14088;SDS011;7120;52.890;6.040;2023-05-10T09:36:34;220.03;;;204.33;;
14088;SDS011;7120;52.890;6.040;2023-05-10T09:38:59;1348.23;;;681.07;;
14088;SDS011;7120;52.890;6.040;2023-05-10T09:41:24;595.43;;;517.93;;
14088;SDS011;7120;52.890;6.040;2023-05-10T09:43:50;1761.07;;;777.40;;
14088;SDS011;7120;52.890;6.040;2023-05-10T09:46:21;953.53;;;621.30;;
14088;SDS011;7120;52.890;6.040;2023-05-10T09:48:47;1211.53;;;574.93;;
14088;SDS011;7120;52.890;6.040;2023-05-10T09:51:19;73.47;;;69.87;;
14088;SDS011;7120;52.890;6.040;2023-05-10T09:53:45;11.20;;;10.57;;
14088;SDS011;7120;52.890;6.040;2023-05-10T09:56:11;189.50;;;174.83;;
14088;SDS011;7120;52.890;6.040;2023-05-10T09:58:36;165.83;;;154.50;;
14088;SDS011;7120;52.890;6.040;2023-05-10T10:01:05;42.63;;;40.33;;
14088;SDS011;7120;52.890;6.040;2023-05-10T10:03:40;4.63;;;4.33;;
14088;SDS011;7120;52.890;6.040;2023-05-10T10:06:07;8.60;;;4.67;;
14088;SDS011;7120;52.890;6.040;2023-05-10T10:08:33;3.93;;;3.63;;
14088;SDS011;7120;52.890;6.040;2023-05-10T10:10:59;5.17;;;3.43;;
14088;SDS011;7120;52.890;6.040;2023-05-10T10:13:24;5.00;;;3.83;;
14088;SDS011;7120;52.890;6.040;2023-05-10T10:15:50;5.63;;;4.27;;
14088;SDS011;7120;52.890;6.040;2023-05-10T10:18:17;5.53;;;5.03;;
14088;SDS011;7120;52.890;6.040;2023-05-10T10:20:43;7.53;;;7.03;;
14088;SDS011;7120;52.890;6.040;2023-05-10T10:23:09;9.93;;;9.07;;
14088;SDS011;7120;52.890;6.040;2023-05-10T10:25:34;5.53;;;5.03;;
14088;SDS011;7120;52.890;6.040;2023-05-10T10:28:08;17.90;;;16.73;;
14088;SDS011;7120;52.890;6.040;2023-05-10T10:30:46;19.90;;;18.80;;
14088;SDS011;7120;52.890;6.040;2023-05-10T10:33:28;6.27;;;5.83;;
14088;SDS011;7120;52.890;6.040;2023-05-10T10:36:01;50.17;;;47.67;;
14088;SDS011;7120;52.890;6.040;2023-05-10T10:52:27;34.10;;;32.23;;
14088;SDS011;7120;52.890;6.040;2023-05-10T11:00:22;31.40;;;29.50;;
14088;SDS011;7120;52.890;6.040;2023-05-10T11:02:56;75.27;;;70.90;;
14088;SDS011;7120;52.890;6.040;2023-05-10T11:05:36;39.37;;;36.97;;
14088;SDS011;7120;52.890;6.040;2023-05-10T11:10:50;22.63;;;20.83;;
14088;SDS011;7120;52.890;6.040;2023-05-10T11:13:38;88.93;;;84.00;;
14088;SDS011;7120;52.890;6.040;2023-05-10T11:21:32;56.43;;;52.87;;
14088;SDS011;7120;52.890;6.040;2023-05-10T11:23:58;96.07;;;90.77;;
14088;SDS011;7120;52.890;6.040;2023-05-10T11:26:25;132.00;;;122.50;;
14088;SDS011;7120;52.890;6.040;2023-05-10T11:28:56;357.57;;;327.53;;
14088;SDS011;7120;52.890;6.040;2023-05-10T11:31:22;59.13;;;55.60;;
14088;SDS011;7120;52.890;6.040;2023-05-10T11:33:52;455.20;;;407.20;;
14088;SDS011;7120;52.890;6.040;2023-05-10T11:36:20;157.93;;;146.23;;
14088;SDS011;7120;52.890;6.040;2023-05-10T11:38:51;278.80;;;256.63;;
14088;SDS011;7120;52.890;6.040;2023-05-10T11:41:17;35.10;;;32.63;;
14088;SDS011;7120;52.890;6.040;2023-05-10T11:43:45;13.23;;;11.93;;
14088;SDS011;7120;52.890;6.040;2023-05-10T11:46:11;36.53;;;34.33;;
14088;SDS011;7120;52.890;6.040;2023-05-10T11:48:38;15.60;;;14.20;;
14088;SDS011;7120;52.890;6.040;2023-05-10T11:51:04;27.07;;;25.33;;
14088;SDS011;7120;52.890;6.040;2023-05-10T11:53:31;21.17;;;19.47;;
14088;SDS011;7120;52.890;6.040;2023-05-10T11:56:04;59.47;;;55.33;;
14088;SDS011;7120;52.890;6.040;2023-05-10T11:58:31;14.10;;;12.87;;
14088;SDS011;7120;52.890;6.040;2023-05-10T12:00:57;11.27;;;10.23;;
14088;SDS011;7120;52.890;6.040;2023-05-10T12:03:27;11.73;;;9.17;;
14088;SDS011;7120;52.890;6.040;2023-05-10T12:05:54;10.93;;;9.83;;
14088;SDS011;7120;52.890;6.040;2023-05-10T12:08:20;10.67;;;9.57;;
14088;SDS011;7120;52.890;6.040;2023-05-10T12:10:47;10.53;;;9.53;;
14088;SDS011;7120;52.890;6.040;2023-05-10T12:13:13;10.07;;;8.93;;
14088;SDS011;7120;52.890;6.040;2023-05-10T12:15:40;10.40;;;9.30;;
14088;SDS011;7120;52.890;6.040;2023-05-10T12:18:10;11.67;;;9.33;;
14088;SDS011;7120;52.890;6.040;2023-05-10T12:20:37;11.10;;;9.87;;
14088;SDS011;7120;52.890;6.040;2023-05-10T12:23:03;28.17;;;26.13;;
14088;SDS011;7120;52.890;6.040;2023-05-10T12:25:32;22.37;;;20.47;;
14088;SDS011;7120;52.890;6.040;2023-05-10T12:27:59;11.30;;;9.80;;
14088;SDS011;7120;52.890;6.040;2023-05-10T12:30:31;51.40;;;48.43;;
14088;SDS011;7120;52.890;6.040;2023-05-10T12:33:02;13.83;;;11.97;;
14088;SDS011;7120;52.890;6.040;2023-05-10T12:35:44;20.10;;;18.47;;
14088;SDS011;7120;52.890;6.040;2023-05-10T12:40:54;1016.63;;;579.03;;
14088;SDS011;7120;52.890;6.040;2023-05-10T12:43:24;76.33;;;71.13;;
14088;SDS011;7120;52.890;6.040;2023-05-10T12:45:50;17.23;;;15.90;;
14088;SDS011;7120;52.890;6.040;2023-05-10T12:48:15;15.07;;;13.87;;
14088;SDS011;7120;52.890;6.040;2023-05-10T12:50:41;62.80;;;59.30;;
14088;SDS011;7120;52.890;6.040;2023-05-10T12:53:06;799.93;;;732.47;;
14088;SDS011;7120;52.890;6.040;2023-05-10T12:55:31;887.17;;;802.23;;
14088;SDS011;7120;52.890;6.040;2023-05-10T12:57:57;1772.07;;;999.90;;
14088;SDS011;7120;52.890;6.040;2023-05-10T13:00:22;1999.90;;;999.90;;
14088;SDS011;7120;52.890;6.040;2023-05-10T13:02:48;1999.90;;;999.90;;
14088;SDS011;7120;52.890;6.040;2023-05-10T13:05:13;1999.90;;;999.90;;
14088;SDS011;7120;52.890;6.040;2023-05-10T13:07:39;1999.90;;;999.90;;
14088;SDS011;7120;52.890;6.040;2023-05-10T13:10:05;1999.90;;;972.60;;
14088;SDS011;7120;52.890;6.040;2023-05-10T13:12:31;1999.90;;;999.90;;
14088;SDS011;7120;52.890;6.040;2023-05-10T13:14:56;911.57;;;845.17;;
14088;SDS011;7120;52.890;6.040;2023-05-10T13:17:22;974.97;;;887.40;;
14088;SDS011;7120;52.890;6.040;2023-05-10T13:19:47;1999.90;;;999.90;;
14088;SDS011;7120;52.890;6.040;2023-05-10T13:22:13;965.07;;;876.70;;
14088;SDS011;7120;52.890;6.040;2023-05-10T13:24:38;1999.90;;;999.90;;
14088;SDS011;7120;52.890;6.040;2023-05-10T13:27:03;560.60;;;514.27;;
14088;SDS011;7120;52.890;6.040;2023-05-10T13:29:29;772.97;;;710.13;;
14088;SDS011;7120;52.890;6.040;2023-05-10T13:31:54;942.30;;;855.83;;
14088;SDS011;7120;52.890;6.040;2023-05-10T13:34:20;183.83;;;176.20;;
14088;SDS011;7120;52.890;6.040;2023-05-10T13:36:46;482.07;;;450.43;;
14088;SDS011;7120;52.890;6.040;2023-05-10T13:39:11;549.10;;;516.03;;
14088;SDS011;7120;52.890;6.040;2023-05-10T13:41:37;920.93;;;829.50;;
14088;SDS011;7120;52.890;6.040;2023-05-10T13:44:02;858.17;;;771.40;;
14088;SDS011;7120;52.890;6.040;2023-05-10T13:46:28;1999.90;;;999.90;;
14088;SDS011;7120;52.890;6.040;2023-05-10T13:48:55;1999.90;;;999.90;;
14088;SDS011;7120;52.890;6.040;2023-05-10T13:51:20;1999.90;;;999.90;;
14088;SDS011;7120;52.890;6.040;2023-05-10T13:53:45;1999.90;;;988.40;;
14088;SDS011;7120;52.890;6.040;2023-05-10T13:56:12;1999.90;;;999.90;;
14088;SDS011;7120;52.890;6.040;2023-05-10T13:58:38;1999.90;;;999.90;;
14088;SDS011;7120;52.890;6.040;2023-05-10T14:01:03;1999.90;;;999.90;;
14088;SDS011;7120;52.890;6.040;2023-05-10T14:03:29;1999.90;;;995.20;;
14088;SDS011;7120;52.890;6.040;2023-05-10T14:05:55;1999.90;;;999.90;;
14088;SDS011;7120;52.890;6.040;2023-05-10T14:08:21;1999.90;;;999.90;;
14088;SDS011;7120;52.890;6.040;2023-05-10T14:10:46;1999.90;;;999.90;;
14088;SDS011;7120;52.890;6.040;2023-05-10T14:13:12;1999.90;;;999.90;;
14088;SDS011;7120;52.890;6.040;2023-05-10T14:15:37;1999.90;;;999.90;;
14088;SDS011;7120;52.890;6.040;2023-05-10T14:18:03;1999.90;;;999.90;;
14088;SDS011;7120;52.890;6.040;2023-05-10T14:20:28;1999.90;;;999.90;;
14088;SDS011;7120;52.890;6.040;2023-05-10T14:22:54;691.80;;;652.60;;
14088;SDS011;7120;52.890;6.040;2023-05-10T14:25:19;661.60;;;625.23;;
14088;SDS011;7120;52.890;6.040;2023-05-10T14:27:45;1113.80;;;990.87;;
14088;SDS011;7120;52.890;6.040;2023-05-10T14:30:10;648.93;;;614.10;;
14088;SDS011;7120;52.890;6.040;2023-05-10T14:32:36;839.30;;;768.60;;
14088;SDS011;7120;52.890;6.040;2023-05-10T14:35:02;172.67;;;166.03;;
14088;SDS011;7120;52.890;6.040;2023-05-10T14:37:28;777.83;;;708.23;;
14088;SDS011;7120;52.890;6.040;2023-05-10T14:39:53;334.87;;;321.17;;
14088;SDS011;7120;52.890;6.040;2023-05-10T14:42:19;481.37;;;455.90;;
14088;SDS011;7120;52.890;6.040;2023-05-10T14:44:44;279.17;;;266.93;;
14088;SDS011;7120;52.890;6.040;2023-05-10T14:47:09;248.00;;;238.03;;
14088;SDS011;7120;52.890;6.040;2023-05-10T14:49:35;292.27;;;279.83;;
14088;SDS011;7120;52.890;6.040;2023-05-10T14:52:00;202.93;;;193.93;;
14088;SDS011;7120;52.890;6.040;2023-05-10T14:54:25;123.60;;;118.53;;
14088;SDS011;7120;52.890;6.040;2023-05-10T14:56:51;147.60;;;141.37;;
14088;SDS011;7120;52.890;6.040;2023-05-10T14:59:16;341.50;;;326.37;;
14088;SDS011;7120;52.890;6.040;2023-05-10T15:01:42;116.53;;;111.73;;